sensor_id;sensor_type;location;lat;lon;timestamp;P1;durP1;ratioP1;P2;durP2;ratioP2
20065;SDS011;10193;48.884;9.182;2022-07-19T00:01:10;2.13;;;1.98;;
20065;SDS011;10193;48.884;9.182;2022-07-19T00:03:36;1.85;;;1.75;;
20065;SDS011;10193;48.884;9.182;2022-07-19T00:06:03;1.85;;;1.70;;
20065;SDS011;10193;48.884;9.182;2022-07-19T00:08:30;2.08;;;1.90;;
20065;SDS011;10193;48.884;9.182;2022-07-19T00:10:57;1.98;;;1.88;;
20065;SDS011;10193;48.884;9.182;2022-07-19T00:13:25;2.05;;;1.90;;
20065;SDS011;10193;48.884;9.182;2022-07-19T00:15:52;2.20;;;1.75;;
20065;SDS011;10193;48.884;9.182;2022-07-19T00:18:19;1.92;;;1.83;;
20065;SDS011;10193;48.884;9.182;2022-07-19T00:20:46;1.75;;;1.65;;
20065;SDS011;10193;48.884;9.182;2022-07-19T00:23:12;1.90;;;1.80;;
20065;SDS011;10193;48.884;9.182;2022-07-19T00:25:39;2.67;;;2.00;;
20065;SDS011;10193;48.884;9.182;2022-07-19T00:28:06;1.88;;;1.70;;
20065;SDS011;10193;48.884;9.182;2022-07-19T00:30:34;1.90;;;1.80;;
20065;SDS011;10193;48.884;9.182;2022-07-19T00:33:01;2.13;;;1.92;;
20065;SDS011;10193;48.884;9.182;2022-07-19T00:35:29;2.03;;;1.85;;
20065;SDS011;10193;48.884;9.182;2022-07-19T00:37:56;1.90;;;1.80;;
20065;SDS011;10193;48.884;9.182;2022-07-19T00:40:28;1.98;;;1.88;;
20065;SDS011;10193;48.884;9.182;2022-07-19T00:42:55;2.20;;;2.00;;
20065;SDS011;10193;48.884;9.182;2022-07-19T00:45:22;2.05;;;1.92;;
20065;SDS011;10193;48.884;9.182;2022-07-19T00:47:50;2.20;;;2.00;;
20065;SDS011;10193;48.884;9.182;2022-07-19T00:50:17;1.95;;;1.85;;
20065;SDS011;10193;48.884;9.182;2022-07-19T00:52:45;2.38;;;2.10;;
20065;SDS011;10193;48.884;9.182;2022-07-19T00:55:15;2.25;;;1.90;;
20065;SDS011;10193;48.884;9.182;2022-07-19T00:57:43;2.25;;;2.10;;
20065;SDS011;10193;48.884;9.182;2022-07-19T01:00:11;2.55;;;1.98;;
20065;SDS011;10193;48.884;9.182;2022-07-19T01:02:40;2.58;;;2.03;;
20065;SDS011;10193;48.884;9.182;2022-07-19T01:05:08;2.50;;;2.30;;
20065;SDS011;10193;48.884;9.182;2022-07-19T01:07:37;2.35;;;2.13;;
20065;SDS011;10193;48.884;9.182;2022-07-19T01:10:06;2.30;;;2.13;;
20065;SDS011;10193;48.884;9.182;2022-07-19T01:12:35;2.08;;;1.98;;
20065;SDS011;10193;48.884;9.182;2022-07-19T01:15:11;2.20;;;2.10;;
20065;SDS011;10193;48.884;9.182;2022-07-19T01:17:39;2.20;;;2.08;;
20065;SDS011;10193;48.884;9.182;2022-07-19T01:20:06;2.22;;;2.03;;
20065;SDS011;10193;48.884;9.182;2022-07-19T01:22:37;2.15;;;2.03;;
20065;SDS011;10193;48.884;9.182;2022-07-19T01:25:05;2.15;;;2.05;;
20065;SDS011;10193;48.884;9.182;2022-07-19T01:27:37;2.17;;;2.08;;
20065;SDS011;10193;48.884;9.182;2022-07-19T01:30:09;2.42;;;2.25;;
20065;SDS011;10193;48.884;9.182;2022-07-19T01:32:37;3.33;;;1.95;;
20065;SDS011;10193;48.884;9.182;2022-07-19T01:35:05;2.03;;;1.83;;
20065;SDS011;10193;48.884;9.182;2022-07-19T01:37:32;2.40;;;2.30;;
20065;SDS011;10193;48.884;9.182;2022-07-19T01:40:00;2.30;;;2.20;;
20065;SDS011;10193;48.884;9.182;2022-07-19T01:42:27;3.42;;;2.30;;
20065;SDS011;10193;48.884;9.182;2022-07-19T01:44:54;2.47;;;2.28;;
20065;SDS011;10193;48.884;9.182;2022-07-19T01:47:21;3.95;;;2.40;;
20065;SDS011;10193;48.884;9.182;2022-07-19T01:49:48;2.17;;;2.08;;
20065;SDS011;10193;48.884;9.182;2022-07-19T01:52:15;2.50;;;2.10;;
20065;SDS011;10193;48.884;9.182;2022-07-19T01:54:42;2.50;;;2.30;;
20065;SDS011;10193;48.884;9.182;2022-07-19T01:57:10;2.58;;;2.30;;
20065;SDS011;10193;48.884;9.182;2022-07-19T01:59:37;2.30;;;2.10;;
20065;SDS011;10193;48.884;9.182;2022-07-19T02:02:05;3.15;;;2.30;;
20065;SDS011;10193;48.884;9.182;2022-07-19T02:04:33;3.30;;;2.38;;
20065;SDS011;10193;48.884;9.182;2022-07-19T02:07:00;2.50;;;2.30;;
20065;SDS011;10193;48.884;9.182;2022-07-19T02:09:27;2.20;;;2.05;;
20065;SDS011;10193;48.884;9.182;2022-07-19T02:11:53;2.78;;;2.15;;
20065;SDS011;10193;48.884;9.182;2022-07-19T02:14:22;2.30;;;2.10;;
20065;SDS011;10193;48.884;9.182;2022-07-19T02:16:48;2.45;;;2.25;;
20065;SDS011;10193;48.884;9.182;2022-07-19T02:19:15;3.53;;;2.40;;
20065;SDS011;10193;48.884;9.182;2022-07-19T02:21:42;3.10;;;2.40;;
20065;SDS011;10193;48.884;9.182;2022-07-19T02:24:09;3.10;;;2.45;;
20065;SDS011;10193;48.884;9.182;2022-07-19T02:26:36;2.80;;;2.40;;
20065;SDS011;10193;48.884;9.182;2022-07-19T02:29:02;2.38;;;2.17;;
20065;SDS011;10193;48.884;9.182;2022-07-19T02:31:31;2.20;;;2.10;;
20065;SDS011;10193;48.884;9.182;2022-07-19T02:33:58;2.10;;;2.00;;
20065;SDS011;10193;48.884;9.182;2022-07-19T02:36:25;2.42;;;2.22;;
20065;SDS011;10193;48.884;9.182;2022-07-19T02:38:51;3.03;;;2.25;;
20065;SDS011;10193;48.884;9.182;2022-07-19T02:41:18;2.45;;;2.25;;
20065;SDS011;10193;48.884;9.182;2022-07-19T02:43:45;4.00;;;2.53;;
20065;SDS011;10193;48.884;9.182;2022-07-19T02:46:12;2.63;;;2.42;;
20065;SDS011;10193;48.884;9.182;2022-07-19T02:48:40;2.80;;;2.50;;
20065;SDS011;10193;48.884;9.182;2022-07-19T02:51:09;3.88;;;2.65;;
20065;SDS011;10193;48.884;9.182;2022-07-19T02:53:36;2.80;;;2.60;;
20065;SDS011;10193;48.884;9.182;2022-07-19T02:56:03;3.17;;;2.50;;
20065;SDS011;10193;48.884;9.182;2022-07-19T02:58:30;2.80;;;2.55;;
20065;SDS011;10193;48.884;9.182;2022-07-19T03:00:57;3.63;;;2.45;;
20065;SDS011;10193;48.884;9.182;2022-07-19T03:03:24;3.78;;;2.40;;
20065;SDS011;10193;48.884;9.182;2022-07-19T03:06:15;2.50;;;2.30;;
20065;SDS011;10193;48.884;9.182;2022-07-19T03:08:43;2.58;;;2.30;;
20065;SDS011;10193;48.884;9.182;2022-07-19T03:11:10;2.53;;;2.33;;
20065;SDS011;10193;48.884;9.182;2022-07-19T03:13:37;2.65;;;2.45;;
20065;SDS011;10193;48.884;9.182;2022-07-19T03:16:05;2.60;;;2.40;;
20065;SDS011;10193;48.884;9.182;2022-07-19T03:18:32;2.67;;;2.20;;
20065;SDS011;10193;48.884;9.182;2022-07-19T03:20:59;2.90;;;2.60;;
20065;SDS011;10193;48.884;9.182;2022-07-19T03:23:27;2.60;;;2.40;;
20065;SDS011;10193;48.884;9.182;2022-07-19T03:25:57;2.58;;;2.38;;
20065;SDS011;10193;48.884;9.182;2022-07-19T03:28:24;4.60;;;2.75;;
20065;SDS011;10193;48.884;9.182;2022-07-19T03:30:51;4.68;;;2.65;;
20065;SDS011;10193;48.884;9.182;2022-07-19T03:33:18;3.22;;;2.58;;
20065;SDS011;10193;48.884;9.182;2022-07-19T03:35:45;3.42;;;2.67;;
20065;SDS011;10193;48.884;9.182;2022-07-19T03:38:13;2.90;;;2.63;;
20065;SDS011;10193;48.884;9.182;2022-07-19T03:40:43;3.20;;;2.63;;
20065;SDS011;10193;48.884;9.182;2022-07-19T03:43:12;2.72;;;2.53;;
20065;SDS011;10193;48.884;9.182;2022-07-19T03:45:39;3.25;;;2.80;;
20065;SDS011;10193;48.884;9.182;2022-07-19T03:48:06;3.00;;;2.78;;
20065;SDS011;10193;48.884;9.182;2022-07-19T03:50:33;3.28;;;2.88;;
20065;SDS011;10193;48.884;9.182;2022-07-19T03:53:00;2.65;;;2.35;;
20065;SDS011;10193;48.884;9.182;2022-07-19T03:55:27;2.53;;;2.30;;
20065;SDS011;10193;48.884;9.182;2022-07-19T03:57:55;2.70;;;2.50;;
20065;SDS011;10193;48.884;9.182;2022-07-19T04:00:22;2.70;;;2.50;;
20065;SDS011;10193;48.884;9.182;2022-07-19T04:02:49;3.22;;;2.70;;
20065;SDS011;10193;48.884;9.182;2022-07-19T04:05:16;3.15;;;2.40;;
20065;SDS011;10193;48.884;9.182;2022-07-19T04:07:43;3.63;;;2.70;;
20065;SDS011;10193;48.884;9.182;2022-07-19T04:10:10;6.13;;;2.60;;
20065;SDS011;10193;48.884;9.182;2022-07-19T04:12:37;2.83;;;2.50;;
20065;SDS011;10193;48.884;9.182;2022-07-19T04:15:09;2.65;;;2.45;;
20065;SDS011;10193;48.884;9.182;2022-07-19T04:17:36;2.70;;;2.50;;
20065;SDS011;10193;48.884;9.182;2022-07-19T04:20:03;3.15;;;2.50;;
20065;SDS011;10193;48.884;9.182;2022-07-19T04:22:31;5.22;;;2.50;;
20065;SDS011;10193;48.884;9.182;2022-07-19T04:24:58;2.58;;;2.30;;
20065;SDS011;10193;48.884;9.182;2022-07-19T04:27:27;2.90;;;2.60;;
20065;SDS011;10193;48.884;9.182;2022-07-19T04:29:54;3.65;;;2.40;;
20065;SDS011;10193;48.884;9.182;2022-07-19T04:32:22;3.13;;;2.55;;
20065;SDS011;10193;48.884;9.182;2022-07-19T04:34:49;3.55;;;2.65;;
20065;SDS011;10193;48.884;9.182;2022-07-19T04:37:16;2.97;;;2.67;;
20065;SDS011;10193;48.884;9.182;2022-07-19T04:39:43;5.05;;;2.70;;
20065;SDS011;10193;48.884;9.182;2022-07-19T04:42:10;2.80;;;2.50;;
20065;SDS011;10193;48.884;9.182;2022-07-19T04:44:37;2.85;;;2.30;;
20065;SDS011;10193;48.884;9.182;2022-07-19T04:47:03;3.90;;;3.00;;
20065;SDS011;10193;48.884;9.182;2022-07-19T04:49:32;3.28;;;2.92;;
20065;SDS011;10193;48.884;9.182;2022-07-19T04:51:58;3.15;;;2.85;;
20065;SDS011;10193;48.884;9.182;2022-07-19T04:54:25;2.75;;;2.55;;
20065;SDS011;10193;48.884;9.182;2022-07-19T04:56:52;3.22;;;2.60;;
20065;SDS011;10193;48.884;9.182;2022-07-19T04:59:19;2.58;;;2.38;;
20065;SDS011;10193;48.884;9.182;2022-07-19T05:01:46;2.72;;;2.53;;
20065;SDS011;10193;48.884;9.182;2022-07-19T05:04:13;3.13;;;2.50;;
20065;SDS011;10193;48.884;9.182;2022-07-19T05:06:41;2.85;;;2.63;;
20065;SDS011;10193;48.884;9.182;2022-07-19T05:09:09;5.20;;;2.72;;
20065;SDS011;10193;48.884;9.182;2022-07-19T05:11:36;2.78;;;2.58;;
20065;SDS011;10193;48.884;9.182;2022-07-19T05:14:12;3.20;;;2.90;;
20065;SDS011;10193;48.884;9.182;2022-07-19T05:16:39;4.70;;;2.53;;
20065;SDS011;10193;48.884;9.182;2022-07-19T05:19:05;2.65;;;2.45;;
20065;SDS011;10193;48.884;9.182;2022-07-19T05:21:35;2.80;;;2.60;;
20065;SDS011;10193;48.884;9.182;2022-07-19T05:24:03;3.22;;;2.38;;
20065;SDS011;10193;48.884;9.182;2022-07-19T05:26:30;4.03;;;2.30;;
20065;SDS011;10193;48.884;9.182;2022-07-19T05:28:58;3.78;;;2.65;;
20065;SDS011;10193;48.884;9.182;2022-07-19T05:31:25;2.80;;;2.60;;
20065;SDS011;10193;48.884;9.182;2022-07-19T05:33:52;6.45;;;2.95;;
20065;SDS011;10193;48.884;9.182;2022-07-19T05:36:19;5.90;;;2.72;;
20065;SDS011;10193;48.884;9.182;2022-07-19T05:38:45;5.20;;;2.90;;
20065;SDS011;10193;48.884;9.182;2022-07-19T05:41:14;3.85;;;2.70;;
20065;SDS011;10193;48.884;9.182;2022-07-19T05:43:42;3.53;;;2.72;;
20065;SDS011;10193;48.884;9.182;2022-07-19T05:46:09;3.00;;;2.60;;
20065;SDS011;10193;48.884;9.182;2022-07-19T05:48:36;2.78;;;2.55;;
20065;SDS011;10193;48.884;9.182;2022-07-19T05:51:02;2.65;;;2.22;;
20065;SDS011;10193;48.884;9.182;2022-07-19T05:53:29;3.92;;;2.20;;
20065;SDS011;10193;48.884;9.182;2022-07-19T05:55:56;2.63;;;2.42;;
20065;SDS011;10193;48.884;9.182;2022-07-19T05:58:24;2.53;;;2.33;;
20065;SDS011;10193;48.884;9.182;2022-07-19T06:00:51;2.55;;;2.35;;
20065;SDS011;10193;48.884;9.182;2022-07-19T06:03:35;3.33;;;2.33;;
20065;SDS011;10193;48.884;9.182;2022-07-19T06:06:02;3.58;;;2.33;;
20065;SDS011;10193;48.884;9.182;2022-07-19T06:08:28;2.53;;;2.22;;
20065;SDS011;10193;48.884;9.182;2022-07-19T06:10:55;2.33;;;2.10;;
20065;SDS011;10193;48.884;9.182;2022-07-19T06:13:22;2.40;;;2.20;;
20065;SDS011;10193;48.884;9.182;2022-07-19T06:15:50;2.95;;;2.10;;
20065;SDS011;10193;48.884;9.182;2022-07-19T06:18:17;2.38;;;2.28;;
20065;SDS011;10193;48.884;9.182;2022-07-19T06:20:44;2.33;;;2.13;;
20065;SDS011;10193;48.884;9.182;2022-07-19T06:23:11;1.85;;;1.75;;
20065;SDS011;10193;48.884;9.182;2022-07-19T06:25:38;2.05;;;1.95;;
20065;SDS011;10193;48.884;9.182;2022-07-19T06:28:04;1.98;;;1.88;;
20065;SDS011;10193;48.884;9.182;2022-07-19T06:30:31;2.33;;;1.65;;
20065;SDS011;10193;48.884;9.182;2022-07-19T06:32:59;3.67;;;1.70;;
20065;SDS011;10193;48.884;9.182;2022-07-19T06:35:26;2.00;;;1.90;;
20065;SDS011;10193;48.884;9.182;2022-07-19T06:37:53;1.80;;;1.70;;
20065;SDS011;10193;48.884;9.182;2022-07-19T06:40:20;1.90;;;1.80;;
20065;SDS011;10193;48.884;9.182;2022-07-19T06:42:46;3.92;;;1.95;;
20065;SDS011;10193;48.884;9.182;2022-07-19T06:45:13;2.88;;;1.75;;
20065;SDS011;10193;48.884;9.182;2022-07-19T06:47:40;1.92;;;1.80;;
20065;SDS011;10193;48.884;9.182;2022-07-19T06:50:08;2.38;;;1.90;;
20065;SDS011;10193;48.884;9.182;2022-07-19T06:52:35;4.03;;;1.70;;
20065;SDS011;10193;48.884;9.182;2022-07-19T06:55:02;2.47;;;1.98;;
20065;SDS011;10193;48.884;9.182;2022-07-19T06:57:29;2.05;;;1.83;;
20065;SDS011;10193;48.884;9.182;2022-07-19T06:59:56;1.85;;;1.67;;
20065;SDS011;10193;48.884;9.182;2022-07-19T07:02:22;1.60;;;1.50;;
20065;SDS011;10193;48.884;9.182;2022-07-19T07:04:49;2.03;;;1.60;;
20065;SDS011;10193;48.884;9.182;2022-07-19T07:07:17;2.63;;;1.90;;
20065;SDS011;10193;48.884;9.182;2022-07-19T07:09:44;3.13;;;1.90;;
20065;SDS011;10193;48.884;9.182;2022-07-19T07:12:11;1.73;;;1.63;;
20065;SDS011;10193;48.884;9.182;2022-07-19T07:14:37;3.45;;;1.60;;
20065;SDS011;10193;48.884;9.182;2022-07-19T07:17:04;1.63;;;1.52;;
20065;SDS011;10193;48.884;9.182;2022-07-19T07:19:31;1.80;;;1.70;;
20065;SDS011;10193;48.884;9.182;2022-07-19T07:21:58;2.63;;;1.35;;
20065;SDS011;10193;48.884;9.182;2022-07-19T07:24:28;2.75;;;1.77;;
20065;SDS011;10193;48.884;9.182;2022-07-19T07:26:55;2.35;;;1.75;;
20065;SDS011;10193;48.884;9.182;2022-07-19T07:29:21;3.50;;;2.00;;
20065;SDS011;10193;48.884;9.182;2022-07-19T07:31:48;1.90;;;1.80;;
20065;SDS011;10193;48.884;9.182;2022-07-19T07:34:15;2.42;;;1.58;;
20065;SDS011;10193;48.884;9.182;2022-07-19T07:36:42;2.13;;;1.48;;
20065;SDS011;10193;48.884;9.182;2022-07-19T07:39:10;1.60;;;1.50;;
20065;SDS011;10193;48.884;9.182;2022-07-19T07:41:38;2.65;;;1.80;;
20065;SDS011;10193;48.884;9.182;2022-07-19T07:44:05;3.47;;;1.42;;
20065;SDS011;10193;48.884;9.182;2022-07-19T07:46:32;1.55;;;1.45;;
20065;SDS011;10193;48.884;9.182;2022-07-19T07:48:59;2.13;;;1.80;;
20065;SDS011;10193;48.884;9.182;2022-07-19T07:51:26;1.77;;;1.67;;
20065;SDS011;10193;48.884;9.182;2022-07-19T07:53:53;1.70;;;1.60;;
20065;SDS011;10193;48.884;9.182;2022-07-19T07:56:19;1.67;;;1.58;;
20065;SDS011;10193;48.884;9.182;2022-07-19T07:58:48;1.80;;;1.70;;
20065;SDS011;10193;48.884;9.182;2022-07-19T08:01:15;1.50;;;1.40;;
20065;SDS011;10193;48.884;9.182;2022-07-19T08:03:42;3.95;;;1.48;;
20065;SDS011;10193;48.884;9.182;2022-07-19T08:06:09;1.70;;;1.42;;
20065;SDS011;10193;48.884;9.182;2022-07-19T08:08:36;1.70;;;1.60;;
20065;SDS011;10193;48.884;9.182;2022-07-19T08:11:03;1.60;;;1.50;;
20065;SDS011;10193;48.884;9.182;2022-07-19T08:13:31;1.60;;;1.50;;
20065;SDS011;10193;48.884;9.182;2022-07-19T08:15:59;1.88;;;1.38;;
20065;SDS011;10193;48.884;9.182;2022-07-19T08:18:26;1.40;;;1.30;;
20065;SDS011;10193;48.884;9.182;2022-07-19T08:20:52;2.28;;;1.33;;
20065;SDS011;10193;48.884;9.182;2022-07-19T08:23:19;1.40;;;1.30;;
20065;SDS011;10193;48.884;9.182;2022-07-19T08:25:46;1.60;;;1.48;;
20065;SDS011;10193;48.884;9.182;2022-07-19T08:28:13;1.30;;;1.30;;
20065;SDS011;10193;48.884;9.182;2022-07-19T08:30:39;1.35;;;1.25;;
20065;SDS011;10193;48.884;9.182;2022-07-19T08:33:08;1.73;;;1.63;;
20065;SDS011;10193;48.884;9.182;2022-07-19T08:35:34;1.38;;;1.27;;
20065;SDS011;10193;48.884;9.182;2022-07-19T08:38:01;3.25;;;1.38;;
20065;SDS011;10193;48.884;9.182;2022-07-19T08:40:28;1.38;;;1.27;;
20065;SDS011;10193;48.884;9.182;2022-07-19T08:42:58;1.63;;;1.30;;
20065;SDS011;10193;48.884;9.182;2022-07-19T08:45:27;1.10;;;1.10;;
20065;SDS011;10193;48.884;9.182;2022-07-19T08:47:54;1.30;;;1.20;;
20065;SDS011;10193;48.884;9.182;2022-07-19T08:50:24;3.33;;;1.15;;
20065;SDS011;10193;48.884;9.182;2022-07-19T08:52:52;1.17;;;1.15;;
20065;SDS011;10193;48.884;9.182;2022-07-19T08:55:19;1.40;;;1.30;;
20065;SDS011;10193;48.884;9.182;2022-07-19T08:57:45;1.55;;;1.13;;
20065;SDS011;10193;48.884;9.182;2022-07-19T09:00:26;1.25;;;1.15;;
20065;SDS011;10193;48.884;9.182;2022-07-19T09:02:54;1.33;;;1.23;;
20065;SDS011;10193;48.884;9.182;2022-07-19T09:05:21;1.23;;;1.13;;
20065;SDS011;10193;48.884;9.182;2022-07-19T09:08:07;1.33;;;1.27;;
20065;SDS011;10193;48.884;9.182;2022-07-19T09:10:36;2.15;;;1.15;;
20065;SDS011;10193;48.884;9.182;2022-07-19T09:13:06;1.40;;;1.30;;
20065;SDS011;10193;48.884;9.182;2022-07-19T09:15:42;1.27;;;1.13;;
20065;SDS011;10193;48.884;9.182;2022-07-19T09:18:12;2.25;;;1.10;;
20065;SDS011;10193;48.884;9.182;2022-07-19T09:20:40;1.42;;;1.27;;
20065;SDS011;10193;48.884;9.182;2022-07-19T09:23:09;1.60;;;1.50;;
20065;SDS011;10193;48.884;9.182;2022-07-19T09:25:38;1.30;;;1.20;;
20065;SDS011;10193;48.884;9.182;2022-07-19T09:28:05;1.45;;;1.35;;
20065;SDS011;10193;48.884;9.182;2022-07-19T09:30:33;1.13;;;1.13;;
20065;SDS011;10193;48.884;9.182;2022-07-19T09:33:07;1.60;;;1.50;;
20065;SDS011;10193;48.884;9.182;2022-07-19T09:35:36;1.17;;;1.08;;
20065;SDS011;10193;48.884;9.182;2022-07-19T09:38:17;1.17;;;1.17;;
20065;SDS011;10193;48.884;9.182;2022-07-19T09:40:49;2.28;;;1.48;;
20065;SDS011;10193;48.884;9.182;2022-07-19T09:43:17;1.50;;;1.40;;
20065;SDS011;10193;48.884;9.182;2022-07-19T09:45:45;1.25;;;1.25;;
20065;SDS011;10193;48.884;9.182;2022-07-19T09:48:12;2.35;;;1.27;;
20065;SDS011;10193;48.884;9.182;2022-07-19T09:50:38;1.55;;;1.30;;
20065;SDS011;10193;48.884;9.182;2022-07-19T09:53:06;2.33;;;1.50;;
20065;SDS011;10193;48.884;9.182;2022-07-19T09:55:34;1.45;;;1.42;;
20065;SDS011;10193;48.884;9.182;2022-07-19T09:58:01;3.00;;;1.60;;
20065;SDS011;10193;48.884;9.182;2022-07-19T10:00:28;1.77;;;1.30;;
20065;SDS011;10193;48.884;9.182;2022-07-19T10:02:56;1.88;;;1.60;;
20065;SDS011;10193;48.884;9.182;2022-07-19T10:05:24;2.42;;;1.60;;
20065;SDS011;10193;48.884;9.182;2022-07-19T10:07:52;1.58;;;1.40;;
20065;SDS011;10193;48.884;9.182;2022-07-19T10:10:20;1.73;;;1.63;;
20065;SDS011;10193;48.884;9.182;2022-07-19T10:12:49;1.73;;;1.63;;
20065;SDS011;10193;48.884;9.182;2022-07-19T10:15:17;2.88;;;1.70;;
20065;SDS011;10193;48.884;9.182;2022-07-19T10:17:50;4.03;;;1.80;;
20065;SDS011;10193;48.884;9.182;2022-07-19T10:20:27;2.05;;;1.75;;
20065;SDS011;10193;48.884;9.182;2022-07-19T10:22:56;2.05;;;1.55;;
20065;SDS011;10193;48.884;9.182;2022-07-19T10:25:25;2.45;;;1.80;;
20065;SDS011;10193;48.884;9.182;2022-07-19T10:28:05;1.77;;;1.60;;
20065;SDS011;10193;48.884;9.182;2022-07-19T10:30:51;1.75;;;1.65;;
20065;SDS011;10193;48.884;9.182;2022-07-19T10:33:29;2.60;;;1.73;;
20065;SDS011;10193;48.884;9.182;2022-07-19T10:35:57;1.60;;;1.50;;
20065;SDS011;10193;48.884;9.182;2022-07-19T10:38:24;2.00;;;1.70;;
20065;SDS011;10193;48.884;9.182;2022-07-19T10:40:51;1.58;;;1.48;;
20065;SDS011;10193;48.884;9.182;2022-07-19T10:43:22;2.30;;;2.10;;
20065;SDS011;10193;48.884;9.182;2022-07-19T10:46:08;1.80;;;1.60;;
20065;SDS011;10193;48.884;9.182;2022-07-19T10:48:37;1.67;;;1.58;;
20065;SDS011;10193;48.884;9.182;2022-07-19T10:51:05;2.75;;;1.98;;
20065;SDS011;10193;48.884;9.182;2022-07-19T10:56:35;1.70;;;1.60;;
20065;SDS011;10193;48.884;9.182;2022-07-19T10:59:30;2.00;;;1.80;;
20065;SDS011;10193;48.884;9.182;2022-07-19T11:02:05;4.03;;;1.80;;
20065;SDS011;10193;48.884;9.182;2022-07-19T11:04:33;2.03;;;1.90;;
20065;SDS011;10193;48.884;9.182;2022-07-19T11:07:10;2.05;;;1.95;;
20065;SDS011;10193;48.884;9.182;2022-07-19T11:09:43;1.85;;;1.75;;
20065;SDS011;10193;48.884;9.182;2022-07-19T11:12:21;1.80;;;1.70;;
20065;SDS011;10193;48.884;9.182;2022-07-19T11:14:54;1.92;;;1.65;;
20065;SDS011;10193;48.884;9.182;2022-07-19T11:17:22;1.70;;;1.60;;
20065;SDS011;10193;48.884;9.182;2022-07-19T11:22:45;1.60;;;1.50;;
20065;SDS011;10193;48.884;9.182;2022-07-19T11:25:13;2.00;;;1.90;;
20065;SDS011;10193;48.884;9.182;2022-07-19T11:27:42;9.77;;;1.90;;
20065;SDS011;10193;48.884;9.182;2022-07-19T11:30:12;1.98;;;1.70;;
20065;SDS011;10193;48.884;9.182;2022-07-19T11:32:40;1.63;;;1.52;;
20065;SDS011;10193;48.884;9.182;2022-07-19T11:35:08;2.20;;;1.85;;
20065;SDS011;10193;48.884;9.182;2022-07-19T11:37:37;3.10;;;1.90;;
20065;SDS011;10193;48.884;9.182;2022-07-19T11:40:05;2.75;;;1.52;;
20065;SDS011;10193;48.884;9.182;2022-07-19T11:42:34;3.75;;;1.90;;
20065;SDS011;10193;48.884;9.182;2022-07-19T11:45:09;3.58;;;1.73;;
20065;SDS011;10193;48.884;9.182;2022-07-19T11:47:43;2.00;;;1.90;;
20065;SDS011;10193;48.884;9.182;2022-07-19T11:50:11;1.80;;;1.70;;
20065;SDS011;10193;48.884;9.182;2022-07-19T11:52:46;4.43;;;2.25;;
20065;SDS011;10193;48.884;9.182;2022-07-19T11:55:15;2.95;;;2.05;;
20065;SDS011;10193;48.884;9.182;2022-07-19T11:57:43;1.90;;;1.80;;
20065;SDS011;10193;48.884;9.182;2022-07-19T12:00:12;2.42;;;1.85;;
20065;SDS011;10193;48.884;9.182;2022-07-19T12:02:50;1.65;;;1.55;;
20065;SDS011;10193;48.884;9.182;2022-07-19T12:05:22;1.60;;;1.50;;
20065;SDS011;10193;48.884;9.182;2022-07-19T12:07:49;1.95;;;1.85;;
20065;SDS011;10193;48.884;9.182;2022-07-19T12:10:36;1.98;;;1.70;;
20065;SDS011;10193;48.884;9.182;2022-07-19T12:13:08;2.10;;;1.75;;
20065;SDS011;10193;48.884;9.182;2022-07-19T12:15:45;2.03;;;1.85;;
20065;SDS011;10193;48.884;9.182;2022-07-19T12:18:14;2.00;;;1.70;;
20065;SDS011;10193;48.884;9.182;2022-07-19T12:20:43;3.22;;;1.77;;
20065;SDS011;10193;48.884;9.182;2022-07-19T12:23:11;1.83;;;1.73;;
20065;SDS011;10193;48.884;9.182;2022-07-19T12:25:39;4.75;;;2.10;;
20065;SDS011;10193;48.884;9.182;2022-07-19T12:28:06;2.35;;;2.00;;
20065;SDS011;10193;48.884;9.182;2022-07-19T12:30:33;1.63;;;1.52;;
20065;SDS011;10193;48.884;9.182;2022-07-19T12:33:08;2.03;;;1.73;;
20065;SDS011;10193;48.884;9.182;2022-07-19T12:35:40;2.28;;;1.75;;
20065;SDS011;10193;48.884;9.182;2022-07-19T12:38:08;1.83;;;1.73;;
20065;SDS011;10193;48.884;9.182;2022-07-19T12:40:37;1.95;;;1.77;;
20065;SDS011;10193;48.884;9.182;2022-07-19T12:43:05;3.35;;;1.80;;
20065;SDS011;10193;48.884;9.182;2022-07-19T12:45:35;2.10;;;2.00;;
20065;SDS011;10193;48.884;9.182;2022-07-19T12:48:04;2.53;;;2.17;;
20065;SDS011;10193;48.884;9.182;2022-07-19T12:50:34;2.30;;;1.65;;
20065;SDS011;10193;48.884;9.182;2022-07-19T12:53:02;1.90;;;1.75;;
20065;SDS011;10193;48.884;9.182;2022-07-19T12:55:32;1.92;;;1.63;;
20065;SDS011;10193;48.884;9.182;2022-07-19T12:58:01;2.13;;;1.92;;
20065;SDS011;10193;48.884;9.182;2022-07-19T13:00:28;1.95;;;1.85;;
20065;SDS011;10193;48.884;9.182;2022-07-19T13:02:57;1.48;;;1.42;;
20065;SDS011;10193;48.884;9.182;2022-07-19T13:05:26;2.08;;;1.98;;
20065;SDS011;10193;48.884;9.182;2022-07-19T13:07:55;2.10;;;1.85;;
20065;SDS011;10193;48.884;9.182;2022-07-19T13:10:23;2.28;;;2.00;;
20065;SDS011;10193;48.884;9.182;2022-07-19T13:12:50;2.80;;;2.10;;
20065;SDS011;10193;48.884;9.182;2022-07-19T13:15:17;2.25;;;1.90;;
20065;SDS011;10193;48.884;9.182;2022-07-19T13:17:44;2.40;;;1.75;;
20065;SDS011;10193;48.884;9.182;2022-07-19T13:20:11;1.77;;;1.67;;
20065;SDS011;10193;48.884;9.182;2022-07-19T13:22:39;1.83;;;1.73;;
20065;SDS011;10193;48.884;9.182;2022-07-19T13:25:08;2.15;;;1.95;;
20065;SDS011;10193;48.884;9.182;2022-07-19T13:27:36;2.25;;;2.10;;
20065;SDS011;10193;48.884;9.182;2022-07-19T13:30:04;2.10;;;2.00;;
20065;SDS011;10193;48.884;9.182;2022-07-19T13:32:31;2.10;;;2.00;;
20065;SDS011;10193;48.884;9.182;2022-07-19T13:34:58;2.28;;;2.08;;
20065;SDS011;10193;48.884;9.182;2022-07-19T13:37:24;2.50;;;2.30;;
20065;SDS011;10193;48.884;9.182;2022-07-19T13:39:51;2.40;;;2.17;;
20065;SDS011;10193;48.884;9.182;2022-07-19T13:42:19;2.20;;;2.10;;
20065;SDS011;10193;48.884;9.182;2022-07-19T13:44:46;3.20;;;2.28;;
20065;SDS011;10193;48.884;9.182;2022-07-19T13:47:13;2.58;;;2.08;;
20065;SDS011;10193;48.884;9.182;2022-07-19T13:49:40;2.30;;;2.10;;
20065;SDS011;10193;48.884;9.182;2022-07-19T13:52:07;3.83;;;2.10;;
20065;SDS011;10193;48.884;9.182;2022-07-19T13:54:34;3.25;;;2.30;;
20065;SDS011;10193;48.884;9.182;2022-07-19T13:57:00;2.50;;;2.20;;
20065;SDS011;10193;48.884;9.182;2022-07-19T13:59:28;2.20;;;2.03;;
20065;SDS011;10193;48.884;9.182;2022-07-19T14:01:56;2.13;;;1.90;;
20065;SDS011;10193;48.884;9.182;2022-07-19T14:04:23;3.00;;;2.08;;
20065;SDS011;10193;48.884;9.182;2022-07-19T14:06:50;2.63;;;2.22;;
20065;SDS011;10193;48.884;9.182;2022-07-19T14:09:17;2.20;;;2.00;;
20065;SDS011;10193;48.884;9.182;2022-07-19T14:11:44;2.17;;;2.03;;
20065;SDS011;10193;48.884;9.182;2022-07-19T14:14:11;3.15;;;2.33;;
20065;SDS011;10193;48.884;9.182;2022-07-19T14:16:40;3.85;;;2.13;;
20065;SDS011;10193;48.884;9.182;2022-07-19T14:19:07;2.50;;;2.10;;
20065;SDS011;10193;48.884;9.182;2022-07-19T14:21:34;2.38;;;2.17;;
20065;SDS011;10193;48.884;9.182;2022-07-19T14:24:00;2.28;;;2.08;;
20065;SDS011;10193;48.884;9.182;2022-07-19T14:26:27;2.30;;;2.20;;
20065;SDS011;10193;48.884;9.182;2022-07-19T14:28:54;2.13;;;2.00;;
20065;SDS011;10193;48.884;9.182;2022-07-19T14:31:21;2.33;;;2.13;;
20065;SDS011;10193;48.884;9.182;2022-07-19T14:33:49;2.20;;;2.00;;
20065;SDS011;10193;48.884;9.182;2022-07-19T14:36:16;2.15;;;2.05;;
20065;SDS011;10193;48.884;9.182;2022-07-19T14:38:43;2.03;;;1.92;;
20065;SDS011;10193;48.884;9.182;2022-07-19T14:41:09;2.00;;;1.75;;
20065;SDS011;10193;48.884;9.182;2022-07-19T14:43:36;2.50;;;2.00;;
20065;SDS011;10193;48.884;9.182;2022-07-19T14:46:03;2.83;;;2.10;;
20065;SDS011;10193;48.884;9.182;2022-07-19T14:48:29;2.00;;;1.90;;
20065;SDS011;10193;48.884;9.182;2022-07-19T14:50:58;2.63;;;1.83;;
20065;SDS011;10193;48.884;9.182;2022-07-19T14:53:24;3.53;;;2.10;;
20065;SDS011;10193;48.884;9.182;2022-07-19T14:55:51;2.25;;;2.05;;
20065;SDS011;10193;48.884;9.182;2022-07-19T14:58:18;2.08;;;1.88;;
20065;SDS011;10193;48.884;9.182;2022-07-19T15:00:44;2.63;;;2.15;;